Time;durP1;ratioP1;P1;durP2;ratioP2;P2;SDS_P1;SDS_P2;PMS_P1;PMS_P2;Temp;Humidity;BMP_temperature;BMP_pressure;BME280_temperature;BME280_humidity;BME280_pressure;Samples;Min_cycle;Max_cycle;Signal;HPM_P1;HPM_P2
2022/10/29 00:01:56;;;;;;;20.17;5.15;;;13.90;99.90;;;;;;5140883;27;20039;-79
2022/10/29 00:04:21;;;;;;;15.30;5.22;;;13.80;99.90;;;;;;5148463;27;20398;-79
2022/10/29 00:06:47;;;;;;;19.58;4.95;;;14.80;99.90;;;;;;5146997;27;20482;-79
2022/10/29 00:09:13;;;;;;;15.82;4.70;;;13.70;99.90;;;;;;5147405;27;20054;-79
2022/10/29 00:11:39;;;;;;;22.67;5.68;;;14.50;99.90;;;;;;5125127;27;20031;-79
2022/10/29 00:14:05;;;;;;;24.27;5.65;;;13.60;99.90;;;;;;5126398;27;20035;-81
2022/10/29 00:16:38;;;;;;;24.88;5.18;;;14.00;99.90;;;;;;5108710;27;20371;-81
2022/10/29 00:19:05;;;;;;;24.47;4.83;;;13.60;99.90;;;;;;5133008;27;20061;-77
2022/10/29 00:21:33;;;;;;;20.70;5.63;;;13.60;99.90;;;;;;5144149;27;20039;-81
2022/10/29 00:23:58;;;;;;;19.98;5.85;;;13.60;99.90;;;;;;5144456;27;20482;-78
2022/10/29 00:26:26;;;;;;;19.27;5.60;;;13.50;99.90;;;;;;5150030;27;20049;-79
2022/10/29 00:28:54;;;;;;;20.05;5.65;;;13.80;99.90;;;;;;5129987;27;20125;-78
2022/10/29 00:31:24;;;;;;;10.45;4.05;;;13.50;99.90;;;;;;5154321;27;20536;-81
2022/10/29 00:33:51;;;;;;;19.90;6.25;;;13.50;99.90;;;;;;5112779;27;20050;-79
2022/10/29 00:36:23;;;;;;;18.42;5.60;;;13.60;99.90;;;;;;5108898;27;20037;-78
2022/10/29 00:38:49;;;;;;;17.90;4.97;;;13.50;99.90;;;;;;5115751;27;20046;-80
2022/10/29 00:41:18;;;;;;;24.48;5.80;;;13.90;99.90;;;;;;5146480;27;20068;-82
2022/10/29 00:44:12;;;;;;;20.08;5.82;;;13.40;99.90;;;;;;5137786;27;20129;-80
2022/10/29 00:46:46;;;;;;;20.02;5.55;;;13.40;99.90;;;;;;5130078;27;20047;-81
2022/10/29 00:49:14;;;;;;;22.00;6.22;;;13.40;99.90;;;;;;5127862;27;20069;-78
2022/10/29 00:51:39;;;;;;;14.88;5.15;;;13.40;99.90;;;;;;5140773;27;20521;-81
2022/10/29 00:54:12;;;;;;;20.20;5.22;;;13.40;99.90;;;;;;5153977;27;20050;-81
2022/10/29 00:56:45;;;;;;;21.50;5.53;;;13.30;99.90;;;;;;5148584;27;20044;-82
2022/10/29 00:59:14;;;;;;;18.67;5.60;;;13.40;99.90;;;;;;5152258;27;20122;-81
2022/10/29 01:01:39;;;;;;;16.20;5.50;;;13.80;99.90;;;;;;5112237;27;20041;-80
2022/10/29 01:04:05;;;;;;;23.52;5.88;;;13.00;99.90;;;;;;5152081;27;20497;-79
2022/10/29 01:06:32;;;;;;;18.33;5.05;;;13.30;99.90;;;;;;5124994;27;20079;-81
2022/10/29 01:08:57;;;;;;;18.52;5.78;;;13.30;99.90;;;;;;5114147;27;20130;-81
2022/10/29 01:11:35;;;;;;;24.20;6.13;;;13.30;99.90;;;;;;5114928;27;20183;-77
2022/10/29 01:14:10;;;;;;;23.70;5.50;;;13.30;99.90;;;;;;5133397;27;20047;-80
2022/10/29 01:17:03;;;;;;;19.85;5.95;;;13.30;99.90;;;;;;5143033;27;20054;-78
2022/10/29 01:19:37;;;;;;;19.83;6.13;;;13.30;99.90;;;;;;5146779;27;20039;-77
2022/10/29 01:22:12;;;;;;;20.00;5.30;;;13.30;99.90;;;;;;5145409;27;20114;-76
2022/10/29 01:25:01;;;;;;;20.38;5.78;;;13.30;99.90;;;;;;5123006;27;20074;-81
2022/10/29 01:27:41;;;;;;;22.88;5.60;;;13.50;99.90;;;;;;5125044;27;20055;-79
2022/10/29 01:30:19;;;;;;;31.55;7.50;;;13.30;99.90;;;;;;5132560;27;20481;-77
2022/10/29 01:32:48;;;;;;;18.20;6.05;;;13.30;99.90;;;;;;5142572;27;20055;-78
2022/10/29 01:35:46;;;;;;;24.13;5.80;;;13.30;99.90;;;;;;5151685;27;20085;-80
2022/10/29 01:38:29;;;;;;;30.58;6.20;;;13.30;99.90;;;;;;5123458;27;20039;-79
2022/10/29 01:41:14;;;;;;;26.02;6.47;;;13.20;99.90;;;;;;5126842;27;20049;-80
2022/10/29 01:43:52;;;;;;;35.30;6.25;;;13.20;99.90;;;;;;5137535;27;20043;-81
2022/10/29 01:46:40;;;;;;;34.85;7.90;;;13.70;99.90;;;;;;5126024;27;20039;-81
2022/10/29 01:49:12;;;;;;;32.58;6.03;;;13.20;99.90;;;;;;5109840;27;20517;-81
2022/10/29 01:51:39;;;;;;;35.83;7.05;;;13.20;99.90;;;;;;5141002;27;20168;-81
2022/10/29 01:54:10;;;;;;;29.20;6.78;;;13.20;99.90;;;;;;5141213;27;20062;-80
2022/10/29 01:56:36;;;;;;;39.10;8.90;;;13.20;99.90;;;;;;5123006;27;20035;-80
2022/10/29 01:59:05;;;;;;;37.65;7.88;;;13.20;99.90;;;;;;5147282;27;20041;-78
2022/10/29 02:01:50;;;;;;;35.90;7.43;;;13.30;99.90;;;;;;5142805;27;20057;-81
2022/10/29 02:04:47;;;;;;;34.33;7.65;;;13.20;99.90;;;;;;5114871;27;20039;-80
2022/10/29 02:07:41;;;;;;;35.85;9.25;;;13.20;99.90;;;;;;5126811;27;20390;-78
2022/10/29 02:10:20;;;;;;;23.27;8.02;;;13.20;99.90;;;;;;5126930;27;20039;-77
2022/10/29 02:12:51;;;;;;;28.90;8.60;;;13.20;99.90;;;;;;5105751;27;20047;-78
2022/10/29 02:15:30;;;;;;;21.95;7.30;;;13.10;99.90;;;;;;5124503;27;20042;-80
2022/10/29 02:18:01;;;;;;;23.38;7.75;;;13.10;99.90;;;;;;5126226;27;20097;-77
2022/10/29 02:20:26;;;;;;;15.10;6.95;;;13.10;99.90;;;;;;5125918;27;20041;-78
2022/10/29 02:22:52;;;;;;;12.70;6.30;;;13.10;99.90;;;;;;5146385;27;20031;-79
2022/10/29 02:25:18;;;;;;;13.05;6.40;;;13.10;99.90;;;;;;5144659;27;20038;-79
2022/10/29 02:27:43;;;;;;;15.07;5.80;;;13.00;99.90;;;;;;5144380;27;20239;-79
2022/10/29 02:30:09;;;;;;;11.55;5.97;;;13.20;99.90;;;;;;5131260;27;20042;-78
2022/10/29 02:32:35;;;;;;;15.82;5.95;;;13.00;99.90;;;;;;5141938;27;20221;-78
2022/10/29 02:35:01;;;;;;;9.73;5.38;;;13.00;99.90;;;;;;5148461;27;20121;-79
2022/10/29 02:37:27;;;;;;;8.85;6.28;;;13.50;99.90;;;;;;5148643;27;20115;-77
2022/10/29 02:39:52;;;;;;;10.52;5.45;;;13.70;99.90;;;;;;5142584;27;20039;-78
2022/10/29 02:42:18;;;;;;;9.35;5.00;;;13.60;99.90;;;;;;5148747;27;20050;-78
2022/10/29 02:44:43;;;;;;;12.57;5.50;;;13.00;99.90;;;;;;5141820;27;20043;-80
2022/10/29 02:47:09;;;;;;;9.63;5.93;;;13.00;99.90;;;;;;5107530;27;20130;-77
2022/10/29 02:49:35;;;;;;;6.38;5.30;;;13.00;99.90;;;;;;5123749;27;20035;-78
2022/10/29 02:52:05;;;;;;;5.68;4.53;;;13.00;99.90;;;;;;5130647;27;20068;-78
2022/10/29 02:54:31;;;;;;;6.63;5.75;;;13.00;99.90;;;;;;5142500;27;20045;-77
2022/10/29 02:56:57;;;;;;;10.82;5.57;;;13.70;99.90;;;;;;5123684;27;20125;-78
2022/10/29 02:59:23;;;;;;;5.85;5.20;;;13.10;99.90;;;;;;5113035;27;20554;-80
2022/10/29 03:01:48;;;;;;;7.95;5.40;;;13.00;99.90;;;;;;5146730;27;20034;-79
2022/10/29 03:04:14;;;;;;;8.98;5.78;;;13.00;99.90;;;;;;5113997;27;20039;-81
2022/10/29 03:06:40;;;;;;;20.70;6.00;;;13.00;99.90;;;;;;5142522;27;20491;-80
2022/10/29 03:09:05;;;;;;;14.38;5.90;;;13.00;99.90;;;;;;5114732;27;20077;-80
2022/10/29 03:11:31;;;;;;;6.72;4.93;;;13.00;99.90;;;;;;5150363;27;20045;-78
2022/10/29 03:13:57;;;;;;;15.55;5.28;;;13.80;99.90;;;;;;5129578;27;20114;-79
2022/10/29 03:16:22;;;;;;;5.90;5.30;;;13.00;99.90;;;;;;5150161;27;20038;-78
2022/10/29 03:18:48;;;;;;;7.10;4.85;;;13.00;99.90;;;;;;5130172;27;20494;-79
2022/10/29 03:21:13;;;;;;;7.78;4.43;;;13.80;99.90;;;;;;5141542;27;20042;-77
2022/10/29 03:23:39;;;;;;;11.63;4.38;;;12.90;99.90;;;;;;5149526;27;20470;-80
2022/10/29 03:26:05;;;;;;;7.65;4.72;;;12.90;99.90;;;;;;5105837;27;20070;-77
2022/10/29 03:28:30;;;;;;;6.70;4.95;;;12.90;99.90;;;;;;5140851;27;20459;-81
2022/10/29 03:30:57;;;;;;;7.03;4.88;;;13.00;99.90;;;;;;5142407;27;20042;-80
2022/10/29 03:33:25;;;;;;;6.78;4.70;;;13.00;99.90;;;;;;5121093;27;20039;-81
2022/10/29 03:36:04;;;;;;;4.85;4.45;;;12.90;99.90;;;;;;5138392;27;20039;-80
2022/10/29 03:38:30;;;;;;;13.05;5.32;;;13.00;99.90;;;;;;5107068;27;20052;-79
2022/10/29 03:40:56;;;;;;;5.82;5.10;;;12.90;99.90;;;;;;5127079;27;20150;-79
2022/10/29 03:43:21;;;;;;;15.23;5.43;;;13.00;99.90;;;;;;5112664;27;20474;-80
2022/10/29 03:45:52;;;;;;;6.45;4.88;;;13.90;99.90;;;;;;5126246;27;20035;-79
2022/10/29 03:48:17;;;;;;;7.20;5.35;;;13.00;99.90;;;;;;5101546;28;20043;-79
2022/10/29 03:50:43;;;;;;;18.55;6.10;;;13.00;99.90;;;;;;5117197;27;20848;-78
2022/10/29 03:53:09;;;;;;;11.57;5.43;;;13.00;99.90;;;;;;5127751;27;20121;-79
2022/10/29 03:55:35;;;;;;;12.30;6.05;;;13.00;99.90;;;;;;5125089;27;20073;-76
2022/10/29 03:58:03;;;;;;;9.90;5.07;;;13.40;99.90;;;;;;5127156;27;20450;-80
2022/10/29 04:00:29;;;;;;;12.93;5.45;;;13.00;99.90;;;;;;5147663;27;20037;-79
2022/10/29 04:02:55;;;;;;;21.85;6.50;;;13.00;99.90;;;;;;5109843;27;20031;-80
2022/10/29 04:05:20;;;;;;;12.93;6.45;;;12.90;99.90;;;;;;5129785;27;20163;-79
2022/10/29 04:07:46;;;;;;;11.85;6.60;;;12.90;99.90;;;;;;5151187;27;20410;-78
2022/10/29 04:10:11;;;;;;;20.17;6.45;;;12.90;99.90;;;;;;5125861;27;20050;-79
2022/10/29 04:12:37;;;;;;;18.63;6.70;;;12.90;99.90;;;;;;5129085;27;20047;-79
2022/10/29 04:15:03;;;;;;;20.77;6.72;;;12.90;99.90;;;;;;5128822;27;20062;-80
2022/10/29 04:17:28;;;;;;;26.48;7.63;;;12.90;99.90;;;;;;5125196;27;20047;-78
2022/10/29 04:19:54;;;;;;;13.02;7.05;;;12.90;99.90;;;;;;5124926;27;20034;-80
2022/10/29 04:22:19;;;;;;;11.90;7.75;;;13.30;99.90;;;;;;5142136;27;20060;-78
2022/10/29 04:24:45;;;;;;;15.68;7.22;;;12.90;99.90;;;;;;5143921;27;20047;-79
2022/10/29 04:27:11;;;;;;;17.25;8.43;;;13.60;99.90;;;;;;5142556;27;20035;-78
2022/10/29 04:29:36;;;;;;;18.55;7.35;;;13.10;99.90;;;;;;5143690;27;20043;-78
2022/10/29 04:32:02;;;;;;;14.82;6.95;;;12.90;99.90;;;;;;5148359;27;20414;-80
2022/10/29 04:34:27;;;;;;;29.20;7.13;;;12.90;99.90;;;;;;5106070;27;20042;-80
2022/10/29 04:36:53;;;;;;;20.67;6.03;;;12.90;99.90;;;;;;5103573;28;20398;-78
2022/10/29 04:39:19;;;;;;;18.35;7.38;;;12.90;99.90;;;;;;5141462;27;20035;-80
2022/10/29 04:41:48;;;;;;;20.48;7.07;;;12.90;99.90;;;;;;5147000;27;20039;-81
2022/10/29 04:44:13;;;;;;;19.77;7.30;;;12.90;99.90;;;;;;5153559;27;20038;-79
2022/10/29 04:46:39;;;;;;;20.15;7.10;;;12.90;99.90;;;;;;5146256;27;20050;-80
2022/10/29 04:49:04;;;;;;;17.40;7.80;;;13.60;99.90;;;;;;5147238;27;20070;-79
2022/10/29 04:51:30;;;;;;;18.08;7.60;;;12.90;99.90;;;;;;5147707;27;20031;-78
2022/10/29 04:53:56;;;;;;;19.13;7.28;;;13.50;99.90;;;;;;5104627;27;20172;-80
2022/10/29 04:56:21;;;;;;;20.13;7.60;;;12.90;99.90;;;;;;5118143;27;20027;-79
2022/10/29 04:58:51;;;;;;;17.25;8.18;;;12.80;99.90;;;;;;5127100;27;20046;-79
2022/10/29 05:01:17;;;;;;;21.20;7.93;;;12.80;99.90;;;;;;5143797;27;20548;-79
2022/10/29 05:03:42;;;;;;;16.85;7.18;;;13.90;99.90;;;;;;5126360;27;20071;-79
2022/10/29 05:06:08;;;;;;;17.95;7.55;;;12.90;99.90;;;;;;5132970;27;20035;-83
2022/10/29 05:08:33;;;;;;;18.80;7.25;;;12.80;99.90;;;;;;5128132;27;20035;-81
2022/10/29 05:11:03;;;;;;;19.08;7.88;;;13.00;99.90;;;;;;5130123;27;20070;-81
2022/10/29 05:13:29;;;;;;;16.05;7.32;;;12.80;99.90;;;;;;5129039;27;20084;-81
2022/10/29 05:15:55;;;;;;;13.48;7.20;;;13.30;99.90;;;;;;5128026;27;20121;-80
2022/10/29 05:18:22;;;;;;;13.60;7.07;;;13.60;99.90;;;;;;5146057;27;20066;-77
2022/10/29 05:20:47;;;;;;;22.30;6.65;;;12.80;99.90;;;;;;5111826;27;20073;-81
2022/10/29 05:23:13;;;;;;;16.02;7.05;;;13.20;99.90;;;;;;5144717;27;20085;-81
2022/10/29 05:25:40;;;;;;;18.67;7.47;;;13.40;99.90;;;;;;5122677;27;20481;-81
2022/10/29 05:28:17;;;;;;;15.75;6.90;;;12.90;99.90;;;;;;5145137;27;20038;-82
2022/10/29 05:30:44;;;;;;;14.63;7.15;;;13.30;99.90;;;;;;5142819;27;20500;-83
2022/10/29 05:33:12;;;;;;;15.00;7.35;;;12.90;99.90;;;;;;5122515;27;20490;-81
2022/10/29 05:35:37;;;;;;;11.25;6.82;;;12.90;99.90;;;;;;5128315;27;20123;-80
2022/10/29 05:38:03;;;;;;;10.13;7.13;;;13.00;99.90;;;;;;5140603;27;20118;-81
2022/10/29 05:40:29;;;;;;;13.38;6.93;;;13.40;99.90;;;;;;5147949;27;20031;-82
2022/10/29 05:42:55;;;;;;;11.05;6.45;;;12.90;99.90;;;;;;5121254;27;20276;-81
2022/10/29 05:45:21;;;;;;;10.10;7.25;;;12.90;99.90;;;;;;5112593;27;20102;-81
2022/10/29 05:47:46;;;;;;;9.40;6.35;;;13.70;99.90;;;;;;5128344;27;20043;-79
2022/10/29 05:50:12;;;;;;;10.93;6.88;;;12.90;99.90;;;;;;5136848;27;20514;-82
2022/10/29 05:52:38;;;;;;;10.27;7.38;;;12.90;99.90;;;;;;5124032;27;20035;-81
2022/10/29 05:55:05;;;;;;;11.90;7.18;;;12.90;99.90;;;;;;5145022;27;20050;-82
2022/10/29 05:57:31;;;;;;;14.38;7.53;;;12.90;99.90;;;;;;5113712;27;20038;-81
2022/10/29 05:59:56;;;;;;;14.93;7.18;;;12.90;99.90;;;;;;5105085;27;20422;-81
2022/10/29 06:02:22;;;;;;;19.40;6.82;;;12.80;99.90;;;;;;5112227;27;20038;-83
2022/10/29 06:04:48;;;;;;;27.17;6.65;;;12.80;99.90;;;;;;5145383;27;20121;-80
2022/10/29 06:07:13;;;;;;;24.13;6.68;;;12.90;99.90;;;;;;5128109;27;20389;-83
2022/10/29 06:09:39;;;;;;;20.42;7.05;;;12.80;99.90;;;;;;5123665;27;20087;-81
2022/10/29 06:12:05;;;;;;;18.45;7.10;;;13.40;99.90;;;;;;5139188;27;20035;-82
2022/10/29 06:14:30;;;;;;;13.82;6.72;;;12.80;99.90;;;;;;5146659;27;20114;-81
2022/10/29 06:16:56;;;;;;;12.02;6.95;;;12.80;99.90;;;;;;5121513;27;20126;-82
2022/10/29 06:19:21;;;;;;;18.33;7.35;;;12.80;99.90;;;;;;5146001;27;20504;-81
2022/10/29 06:21:47;;;;;;;13.45;7.13;;;12.80;99.90;;;;;;5141259;27;20078;-82
2022/10/29 06:24:13;;;;;;;11.63;6.00;;;12.80;99.90;;;;;;5119388;27;20464;-81
2022/10/29 06:26:39;;;;;;;20.13;7.00;;;12.80;99.90;;;;;;5124164;27;20091;-82
2022/10/29 06:29:05;;;;;;;40.20;7.20;;;12.80;99.90;;;;;;5126902;27;20035;-81
2022/10/29 06:31:30;;;;;;;29.23;7.40;;;12.80;99.90;;;;;;5114283;27;20142;-82
2022/10/29 06:33:56;;;;;;;22.67;6.75;;;13.20;99.90;;;;;;5125393;27;20528;-82
2022/10/29 06:36:22;;;;;;;20.23;13.68;;;13.60;99.90;;;;;;5141811;27;20042;-82
2022/10/29 06:38:47;;;;;;;23.92;6.45;;;13.30;99.90;;;;;;5097615;27;20072;-80
2022/10/29 06:41:13;;;;;;;17.42;9.38;;;12.80;99.90;;;;;;5125319;27;20031;-82
2022/10/29 06:43:39;;;;;;;13.23;6.90;;;13.70;99.90;;;;;;5141124;27;20486;-81
2022/10/29 06:46:04;;;;;;;20.05;6.30;;;12.80;99.90;;;;;;5126803;27;20035;-80
2022/10/29 06:48:30;;;;;;;15.45;6.65;;;13.80;99.90;;;;;;5139652;27;20195;-81
2022/10/29 06:50:58;;;;;;;16.08;6.63;;;13.10;99.90;;;;;;5151018;27;20215;-81
2022/10/29 06:53:26;;;;;;;13.80;6.65;;;12.90;99.90;;;;;;5139762;27;20498;-81
2022/10/29 06:55:52;;;;;;;12.57;6.20;;;12.90;99.90;;;;;;5121392;27;20065;-78
2022/10/29 06:58:19;;;;;;;11.75;6.10;;;12.90;99.90;;;;;;5121211;27;20043;-80
2022/10/29 07:00:46;;;;;;;17.38;6.75;;;13.30;99.90;;;;;;5121886;27;20043;-80
2022/10/29 07:03:17;;;;;;;15.45;7.20;;;12.90;99.90;;;;;;5125651;27;20054;-78
2022/10/29 07:05:42;;;;;;;15.65;7.38;;;13.00;99.90;;;;;;5122747;27;20035;-81
2022/10/29 07:08:08;;;;;;;17.90;8.20;;;13.00;99.90;;;;;;5145274;27;20236;-82
2022/10/29 07:10:34;;;;;;;18.10;7.60;;;13.00;99.90;;;;;;5121120;27;20535;-81
2022/10/29 07:13:00;;;;;;;16.60;7.72;;;13.60;99.90;;;;;;5128629;27;20541;-82
2022/10/29 07:15:26;;;;;;;16.58;7.05;;;13.80;99.90;;;;;;5119945;27;20027;-81
2022/10/29 07:18:02;;;;;;;21.58;8.55;;;13.10;99.90;;;;;;5141965;27;20565;-80
2022/10/29 07:20:29;;;;;;;23.15;8.15;;;13.10;99.90;;;;;;5142163;27;20081;-81
2022/10/29 07:22:56;;;;;;;27.85;9.40;;;13.50;99.90;;;;;;5127077;27;20616;-80
2022/10/29 07:25:22;;;;;;;31.92;9.73;;;13.40;99.90;;;;;;5126245;27;20043;-81
2022/10/29 07:27:48;;;;;;;27.55;8.75;;;13.10;99.90;;;;;;5117476;27;20121;-81
2022/10/29 07:30:14;;;;;;;21.73;8.77;;;13.60;99.90;;;;;;5120311;27;20472;-82
2022/10/29 07:32:40;;;;;;;35.40;9.88;;;13.10;99.90;;;;;;5140856;27;20057;-82
2022/10/29 07:35:06;;;;;;;30.23;9.18;;;13.40;99.90;;;;;;5123416;27;20030;-82
2022/10/29 07:37:31;;;;;;;25.42;9.57;;;13.20;99.90;;;;;;5106174;27;20122;-82
2022/10/29 07:39:57;;;;;;;26.60;9.15;;;13.40;99.90;;;;;;5140440;27;20084;-82
2022/10/29 07:42:23;;;;;;;32.00;10.40;;;13.60;99.90;;;;;;5123779;27;20077;-82
2022/10/29 07:44:48;;;;;;;25.58;11.07;;;13.70;99.90;;;;;;5140344;27;20047;-81
2022/10/29 07:47:14;;;;;;;28.13;10.35;;;13.20;99.90;;;;;;5137213;27;20043;-82
2022/10/29 07:49:40;;;;;;;24.83;10.68;;;13.30;99.90;;;;;;5126428;27;20084;-79
2022/10/29 07:52:05;;;;;;;32.00;13.63;;;13.30;99.90;;;;;;5123784;27;20070;-81
2022/10/29 07:54:31;;;;;;;35.40;14.15;;;13.50;99.90;;;;;;5124072;27;20035;-81
2022/10/29 07:56:56;;;;;;;39.75;15.27;;;14.00;99.90;;;;;;5121815;27;20538;-80
2022/10/29 07:59:22;;;;;;;39.58;16.10;;;13.30;99.90;;;;;;5142332;27;20054;-81
2022/10/29 08:01:47;;;;;;;35.92;16.15;;;13.30;99.90;;;;;;5106129;27;20035;-81
2022/10/29 08:04:13;;;;;;;38.00;17.08;;;13.40;99.90;;;;;;5123406;27;20091;-81
2022/10/29 08:06:39;;;;;;;39.55;17.20;;;14.00;99.90;;;;;;5140714;27;20039;-82
2022/10/29 08:09:05;;;;;;;39.25;17.33;;;13.70;99.90;;;;;;5106605;27;20349;-81
2022/10/29 08:11:32;;;;;;;46.20;18.50;;;13.90;99.90;;;;;;5122863;27;20046;-81
2022/10/29 08:13:58;;;;;;;35.88;17.92;;;13.40;99.90;;;;;;5121072;27;20054;-82
2022/10/29 08:16:24;;;;;;;40.08;18.70;;;13.40;99.90;;;;;;5130236;27;20046;-78
2022/10/29 08:18:49;;;;;;;40.95;18.65;;;13.70;99.90;;;;;;5109432;27;20508;-78
2022/10/29 08:21:15;;;;;;;35.40;17.90;;;13.50;99.90;;;;;;5146109;27;20509;-81
2022/10/29 08:23:41;;;;;;;43.15;20.50;;;13.50;99.90;;;;;;5125413;27;20478;-81
2022/10/29 08:26:06;;;;;;;42.42;21.23;;;13.50;99.90;;;;;;5126130;27;20042;-81
2022/10/29 08:28:32;;;;;;;41.75;20.75;;;13.90;99.90;;;;;;5145809;27;20095;-82
2022/10/29 08:30:57;;;;;;;42.33;22.02;;;13.50;99.90;;;;;;5107502;27;20051;-79
2022/10/29 08:33:23;;;;;;;45.30;22.40;;;13.60;99.90;;;;;;5109970;27;20507;-81
2022/10/29 08:35:48;;;;;;;46.47;22.58;;;13.60;99.90;;;;;;5109758;27;20054;-81
2022/10/29 08:38:14;;;;;;;47.60;24.08;;;13.60;99.90;;;;;;5124861;27;20117;-82
2022/10/29 08:41:25;;;;;;;47.58;24.45;;;13.60;99.90;;;;;;5127244;27;20035;-82
2022/10/29 08:44:09;;;;;;;60.17;26.65;;;13.60;99.90;;;;;;5122713;27;20050;-81
2022/10/29 08:46:40;;;;;;;46.28;23.88;;;13.60;99.90;;;;;;5105875;27;20091;-81
2022/10/29 08:49:15;;;;;;;40.67;22.90;;;13.70;99.90;;;;;;5151459;27;20047;-80
2022/10/29 08:51:48;;;;;;;43.20;23.42;;;14.30;99.90;;;;;;5123671;27;20047;-81
2022/10/29 08:54:14;;;;;;;49.28;24.13;;;14.10;99.90;;;;;;5126892;27;20035;-82
2022/10/29 08:56:47;;;;;;;40.50;23.35;;;13.80;99.90;;;;;;5126153;27;20035;-82
2022/10/29 08:59:16;;;;;;;42.40;22.98;;;13.70;99.90;;;;;;5141142;27;20069;-82
2022/10/29 09:01:43;;;;;;;46.80;23.48;;;13.80;99.90;;;;;;5126816;27;20047;-82
2022/10/29 09:04:35;;;;;;;45.83;23.08;;;13.80;99.90;;;;;;5127201;27;20043;-83
2022/10/29 09:07:27;;;;;;;41.50;22.75;;;13.80;99.90;;;;;;5125327;27;20043;-82
2022/10/29 09:10:06;;;;;;;38.70;21.48;;;13.90;99.90;;;;;;5150315;27;20529;-80
2022/10/29 09:12:56;;;;;;;36.50;21.10;;;13.90;99.90;;;;;;5145217;27;20099;-80
2022/10/29 09:15:40;;;;;;;41.33;21.73;;;13.90;99.90;;;;;;5120410;27;20039;-82
2022/10/29 09:18:18;;;;;;;42.33;24.00;;;13.90;99.90;;;;;;5112763;27;20042;-82
2022/10/29 09:21:15;;;;;;;37.60;22.20;;;14.00;99.90;;;;;;5105078;27;20408;-83
2022/10/29 09:23:48;;;;;;;38.20;22.65;;;14.00;99.90;;;;;;5140140;27;20556;-82
2022/10/29 09:26:47;;;;;;;40.75;22.10;;;14.10;99.90;;;;;;5143575;27;20427;-82
2022/10/29 09:29:31;;;;;;;38.35;21.08;;;14.10;99.90;;;;;;5106510;27;20053;-82
2022/10/29 09:32:12;;;;;;;43.40;23.83;;;14.10;99.90;;;;;;5115417;27;20103;-81
2022/10/29 09:34:40;;;;;;;36.08;21.85;;;14.20;99.90;;;;;;5104686;27;20096;-81
2022/10/29 09:37:22;;;;;;;39.40;21.17;;;14.90;99.90;;;;;;5130712;27;20142;-83
2022/10/29 09:39:48;;;;;;;32.35;21.52;;;14.20;99.90;;;;;;5123174;27;20529;-81
2022/10/29 09:42:30;;;;;;;38.28;20.85;;;14.20;99.90;;;;;;5142758;27;20383;-81
2022/10/29 09:45:01;;;;;;;44.67;22.88;;;14.30;99.90;;;;;;5124148;27;20106;-81
2022/10/29 09:47:44;;;;;;;37.30;22.83;;;14.90;99.90;;;;;;5144545;27;20056;-82
2022/10/29 09:50:13;;;;;;;34.92;22.60;;;14.30;99.90;;;;;;5123911;27;20084;-82
2022/10/29 09:52:41;;;;;;;38.67;20.10;;;14.30;99.90;;;;;;5125522;27;20049;-82
2022/10/29 09:55:16;;;;;;;37.00;20.65;;;15.00;99.90;;;;;;5143506;27;20398;-81
2022/10/29 09:57:42;;;;;;;33.85;20.70;;;14.40;99.90;;;;;;5107930;27;20047;-80
2022/10/29 10:00:30;;;;;;;40.55;21.10;;;14.40;99.90;;;;;;5142000;27;20539;-82
2022/10/29 10:03:11;;;;;;;31.67;19.70;;;14.40;99.90;;;;;;5124691;27;20110;-83
2022/10/29 10:05:55;;;;;;;35.80;19.52;;;14.50;99.90;;;;;;5108633;27;20058;-83
2022/10/29 10:08:20;;;;;;;31.65;19.55;;;14.50;99.90;;;;;;5122574;27;20034;-84
2022/10/29 10:10:57;;;;;;;30.30;18.95;;;14.50;99.90;;;;;;5111049;27;20500;-83
2022/10/29 10:13:29;;;;;;;30.88;18.30;;;14.60;99.90;;;;;;5122036;27;20612;-83
2022/10/29 10:15:59;;;;;;;35.95;19.10;;;14.60;99.90;;;;;;5148295;27;20031;-82
2022/10/29 10:18:31;;;;;;;29.67;18.73;;;14.70;99.90;;;;;;5145302;27;20193;-81
2022/10/29 10:21:07;;;;;;;33.22;17.52;;;15.50;99.90;;;;;;5140412;27;20050;-83
2022/10/29 10:23:54;;;;;;;29.45;17.25;;;14.80;99.90;;;;;;5122882;27;20147;-83
2022/10/29 10:26:34;;;;;;;33.55;16.80;;;15.10;99.90;;;;;;5124292;27;20555;-82
2022/10/29 10:29:04;;;;;;;29.70;18.00;;;14.90;99.90;;;;;;5130747;27;20051;-83
2022/10/29 10:31:29;;;;;;;31.65;16.67;;;15.40;99.90;;;;;;5128144;27;20039;-82
2022/10/29 10:33:55;;;;;;;29.80;16.98;;;15.10;99.90;;;;;;5121424;27;20061;-83
2022/10/29 10:36:25;;;;;;;27.80;16.20;;;15.50;99.90;;;;;;5120086;27;20034;-82
2022/10/29 10:38:56;;;;;;;24.95;15.20;;;15.20;99.90;;;;;;5143407;27;20045;-82
2022/10/29 10:41:29;;;;;;;22.83;14.50;;;15.60;99.90;;;;;;5107475;27;20049;-82
2022/10/29 10:44:00;;;;;;;28.70;13.88;;;15.30;99.90;;;;;;5128203;27;20478;-82
2022/10/29 10:46:41;;;;;;;26.73;15.38;;;15.40;99.90;;;;;;5120863;27;20088;-82
2022/10/29 10:49:14;;;;;;;27.23;15.75;;;15.40;99.90;;;;;;5146002;27;20038;-82
2022/10/29 10:51:49;;;;;;;26.65;14.38;;;15.40;99.90;;;;;;5120466;27;20043;-81
2022/10/29 10:54:27;;;;;;;30.02;13.70;;;15.50;99.90;;;;;;5133731;27;20034;-80
2022/10/29 10:56:57;;;;;;;40.53;15.27;;;15.50;99.90;;;;;;5122010;27;20135;-85
2022/10/29 10:59:29;;;;;;;24.38;12.48;;;15.60;99.90;;;;;;5111417;27;20046;-82
2022/10/29 11:01:59;;;;;;;24.58;12.48;;;15.80;99.90;;;;;;5120728;27;20335;-80
2022/10/29 11:04:37;;;;;;;21.30;11.93;;;16.60;99.90;;;;;;5129115;27;20089;-81
2022/10/29 11:07:07;;;;;;;21.17;12.40;;;15.80;99.90;;;;;;5120255;27;20044;-80
2022/10/29 11:09:38;;;;;;;21.85;11.95;;;15.90;99.90;;;;;;5116882;27;20081;-80
2022/10/29 11:12:18;;;;;;;30.17;12.80;;;16.30;99.90;;;;;;5140537;27;20027;-79
2022/10/29 11:14:54;;;;;;;24.88;14.80;;;16.00;99.90;;;;;;5120880;27;20903;-80
2022/10/29 11:17:28;;;;;;;21.92;11.70;;;16.10;99.90;;;;;;5148886;27;20050;-81
2022/10/29 11:19:58;;;;;;;22.92;10.85;;;16.20;99.90;;;;;;5143057;27;20712;-81
2022/10/29 11:22:30;;;;;;;22.52;11.50;;;16.70;99.90;;;;;;5123396;27;20042;-77
2022/10/29 11:25:16;;;;;;;25.30;11.30;;;16.60;99.90;;;;;;5121726;27;20478;-81
2022/10/29 11:27:48;;;;;;;26.50;11.23;;;16.60;99.90;;;;;;5124547;27;20084;-83
2022/10/29 11:30:16;;;;;;;23.27;11.15;;;16.50;99.90;;;;;;5111406;27;20043;-84
2022/10/29 11:33:22;;;;;;;22.73;9.60;;;16.60;99.90;;;;;;5104058;27;20047;-84
2022/10/29 11:35:50;;;;;;;20.40;10.23;;;16.70;99.90;;;;;;5108751;27;20168;-80
2022/10/29 11:38:22;;;;;;;25.65;10.65;;;16.80;99.90;;;;;;5139533;27;20058;-84
2022/10/29 11:40:54;;;;;;;24.92;10.00;;;16.90;99.90;;;;;;5106600;27;20049;-84
2022/10/29 11:43:20;;;;;;;25.13;10.75;;;17.60;99.90;;;;;;5105293;27;20035;-84
2022/10/29 11:46:13;;;;;;;21.27;10.73;;;17.00;99.90;;;;;;5106679;27;20042;-84
2022/10/29 11:48:58;;;;;;;22.85;10.68;;;17.00;99.90;;;;;;5107154;27;20537;-82
2022/10/29 11:51:50;;;;;;;19.77;10.20;;;17.00;99.90;;;;;;5126256;27;20042;-80
2022/10/29 11:54:25;;;;;;;19.65;10.20;;;17.00;99.90;;;;;;5126225;27;20048;-82
2022/10/29 11:57:07;;;;;;;23.90;10.50;;;17.00;99.90;;;;;;5142635;27;20122;-83
2022/10/29 11:59:59;;;;;;;25.88;10.75;;;17.10;99.90;;;;;;5131985;27;20039;-84
2022/10/29 12:02:41;;;;;;;23.77;11.70;;;17.10;99.90;;;;;;5146796;27;20051;-82
2022/10/29 12:05:35;;;;;;;23.95;10.30;;;17.10;99.90;;;;;;5121171;27;20070;-82
2022/10/29 12:08:22;;;;;;;23.63;10.97;;;17.10;99.90;;;;;;5152897;27;20486;-84
2022/10/29 12:11:20;;;;;;;19.10;10.20;;;17.10;99.90;;;;;;5113999;27;20083;-84
2022/10/29 12:13:49;;;;;;;23.02;9.77;;;17.10;99.90;;;;;;5142021;27;20551;-83
2022/10/29 12:16:46;;;;;;;25.70;10.95;;;17.20;99.90;;;;;;5124895;27;20500;-83
2022/10/29 12:19:33;;;;;;;19.08;10.10;;;17.20;99.90;;;;;;5086089;27;20053;-84
2022/10/29 12:22:30;;;;;;;24.52;11.35;;;17.20;99.90;;;;;;5128468;27;20038;-83
2022/10/29 12:25:18;;;;;;;26.05;10.90;;;17.30;99.90;;;;;;5124100;27;20035;-83
2022/10/29 12:28:00;;;;;;;24.02;10.43;;;17.30;99.90;;;;;;5106869;27;20107;-83
2022/10/29 12:30:33;;;;;;;22.77;10.95;;;17.40;99.90;;;;;;5146923;27;20114;-81
2022/10/29 12:33:09;;;;;;;24.50;11.07;;;17.40;99.90;;;;;;5126994;27;20144;-84
2022/10/29 12:35:55;;;;;;;28.23;11.05;;;17.50;99.90;;;;;;5104536;27;20043;-84
2022/10/29 12:38:41;;;;;;;22.30;10.98;;;17.50;99.90;;;;;;5126452;27;20443;-84
2022/10/29 12:41:28;;;;;;;27.48;11.27;;;18.30;99.90;;;;;;5127700;27;20040;-78
2022/10/29 12:44:09;;;;;;;21.92;10.93;;;18.20;99.90;;;;;;5128025;27;20043;-84
2022/10/29 12:46:47;;;;;;;21.27;10.75;;;17.90;99.90;;;;;;5107161;27;20147;-81
2022/10/29 12:49:39;;;;;;;20.90;10.45;;;18.10;99.90;;;;;;5143365;27;20039;-84
2022/10/29 12:52:15;;;;;;;20.70;9.57;;;18.30;99.90;;;;;;5091654;27;20165;-83
2022/10/29 12:54:44;;;;;;;24.92;10.13;;;18.50;99.90;;;;;;5109160;27;20035;-81